TAM6AC SPSO-SPGM
Flight info
| Callsign | TAM6AC |
|---|---|
| Flight time | 1h 2m |
| Altitude | 37000 |
| Route | ESEDI DCT JCL UL305 AMVEX DCT TOKAN |
| Aircraft | A319/M-SDE3FGHIRWY/LB1 |
Departure
| Time | 2026-05-06 18:58 |
|---|---|
| Airport | Captain Renán Elías Olivera International Airport (SPSO) |
Arrival
| Time | 2026-05-06 20:01 |
|---|---|
| Airport | Tingo Maria Airport (SPGM) |
| Time | Latitude | Longitude | Altitude | Speed | Heading |
|---|---|---|---|---|---|
| 2026-05-06 18:30 | -13.73685 | -76.21803 | 36 ft | 0 kts | 308° |
| 2026-05-06 18:38 | -13.73687 | -76.21802 | 36 ft | 2 kts | 308° |
| 2026-05-06 18:38 | -13.73700 | -76.21780 | 36 ft | 4 kts | 291° |
| 2026-05-06 18:39 | -13.73708 | -76.21753 | 35 ft | 4 kts | 274° |
| 2026-05-06 18:39 | -13.73706 | -76.21726 | 36 ft | 4 kts | 252° |
| 2026-05-06 18:39 | -13.73694 | -76.21704 | 36 ft | 2 kts | 220° |
| 2026-05-06 18:40 | -13.73693 | -76.21703 | 36 ft | 0 kts | 219° |
| 2026-05-06 18:41 | -13.73699 | -76.21708 | 36 ft | 4 kts | 219° |
| 2026-05-06 18:41 | -13.73735 | -76.21737 | 34 ft | 10 kts | 217° |
| 2026-05-06 18:42 | -13.73788 | -76.21697 | 35 ft | 14 kts | 76° |
| 2026-05-06 18:42 | -13.73713 | -76.21626 | 36 ft | 15 kts | 39° |
| 2026-05-06 18:42 | -13.73624 | -76.21550 | 37 ft | 18 kts | 40° |
| 2026-05-06 18:42 | -13.73523 | -76.21463 | 37 ft | 18 kts | 39° |
| 2026-05-06 18:43 | -13.73441 | -76.21395 | 40 ft | 12 kts | 39° |
| 2026-05-06 18:43 | -13.73413 | -76.21330 | 38 ft | 9 kts | 113° |
| 2026-05-06 18:43 | -13.73428 | -76.21251 | 40 ft | 13 kts | 103° |
| 2026-05-06 18:43 | -13.73467 | -76.21184 | 41 ft | 6 kts | 175° |
| 2026-05-06 18:44 | -13.73489 | -76.21203 | 41 ft | 8 kts | 242° |
| 2026-05-06 18:44 | -13.73501 | -76.21222 | 41 ft | 6 kts | 226° |
| 2026-05-06 18:44 | -13.73517 | -76.21236 | 40 ft | 2 kts | 221° |
| 2026-05-06 18:44 | -13.73525 | -76.21243 | 40 ft | 2 kts | 221° |
| 2026-05-06 18:45 | -13.73540 | -76.21256 | 40 ft | 0 kts | 221° |
| 2026-05-06 18:57 | -13.73568 | -76.21281 | 38 ft | 27 kts | 220° |
| 2026-05-06 18:58 | -13.73909 | -76.21566 | 34 ft | 96 kts | 219° |
| 2026-05-06 18:58 | -13.74580 | -76.22130 | 40 ft | 148 kts | 219° |
| 2026-05-06 18:58 | -13.75388 | -76.22820 | 574 ft | 153 kts | 220° |
| 2026-05-06 18:58 | -13.76225 | -76.23541 | 1170 ft | 161 kts | 219° |
| 2026-05-06 18:59 | -13.77114 | -76.24292 | 1723 ft | 170 kts | 218° |
| 2026-05-06 18:59 | -13.78073 | -76.25128 | 2083 ft | 192 kts | 220° |
| 2026-05-06 18:59 | -13.79146 | -76.26084 | 2381 ft | 217 kts | 220° |
| 2026-05-06 18:59 | -13.80350 | -76.27161 | 2830 ft | 242 kts | 220° |
| 2026-05-06 19:00 | -13.81672 | -76.28357 | 3417 ft | 261 kts | 220° |
| 2026-05-06 19:00 | -13.83050 | -76.29621 | 4285 ft | 270 kts | 220° |
| 2026-05-06 19:00 | -13.84468 | -76.30923 | 5181 ft | 276 kts | 220° |
| 2026-05-06 19:00 | -13.85920 | -76.32234 | 6126 ft | 280 kts | 220° |
| 2026-05-06 19:01 | -13.87236 | -76.33712 | 7015 ft | 284 kts | 239° |
| 2026-05-06 19:01 | -13.87858 | -76.35640 | 7866 ft | 289 kts | 265° |
| 2026-05-06 19:01 | -13.87628 | -76.37697 | 8713 ft | 294 kts | 290° |
| 2026-05-06 19:01 | -13.86556 | -76.39492 | 9569 ft | 299 kts | 315° |
| 2026-05-06 19:02 | -13.84816 | -76.40677 | 10254 ft | 309 kts | 339° |
| 2026-05-06 19:02 | -13.82656 | -76.41214 | 10552 ft | 330 kts | 350° |
| 2026-05-06 19:02 | -13.80370 | -76.41637 | 11183 ft | 337 kts | 350° |
| 2026-05-06 19:02 | -13.78040 | -76.42088 | 11893 ft | 342 kts | 350° |
| 2026-05-06 19:03 | -13.75687 | -76.42554 | 12622 ft | 346 kts | 350° |
| 2026-05-06 19:03 | -13.73310 | -76.43038 | 13337 ft | 351 kts | 350° |
| 2026-05-06 19:03 | -13.70899 | -76.43531 | 14003 ft | 355 kts | 351° |
| 2026-05-06 19:03 | -13.68467 | -76.44018 | 14630 ft | 358 kts | 351° |
| 2026-05-06 19:04 | -13.66008 | -76.44519 | 15265 ft | 362 kts | 350° |
| 2026-05-06 19:04 | -13.63524 | -76.45026 | 15894 ft | 365 kts | 351° |
| 2026-05-06 19:04 | -13.61022 | -76.45533 | 16532 ft | 369 kts | 351° |
| 2026-05-06 19:04 | -13.58491 | -76.46047 | 17161 ft | 372 kts | 351° |
| 2026-05-06 19:05 | -13.55940 | -76.46562 | 17799 ft | 375 kts | 350° |
| 2026-05-06 19:05 | -13.53368 | -76.47082 | 18408 ft | 379 kts | 350° |
| 2026-05-06 19:05 | -13.50771 | -76.47608 | 18973 ft | 381 kts | 350° |
| 2026-05-06 19:05 | -13.48153 | -76.48140 | 19553 ft | 384 kts | 349° |
| 2026-05-06 19:06 | -13.45559 | -76.48665 | 20080 ft | 388 kts | 349° |
| 2026-05-06 19:06 | -13.42866 | -76.49213 | 20651 ft | 391 kts | 349° |
| 2026-05-06 19:06 | -13.40304 | -76.49732 | 21207 ft | 393 kts | 349° |
| 2026-05-06 19:06 | -13.37615 | -76.50278 | 21803 ft | 395 kts | 348° |
| 2026-05-06 19:07 | -13.34916 | -76.50827 | 22432 ft | 396 kts | 348° |
| 2026-05-06 19:07 | -13.32211 | -76.51373 | 23045 ft | 397 kts | 348° |
| 2026-05-06 19:07 | -13.29494 | -76.51922 | 23664 ft | 398 kts | 348° |
| 2026-05-06 19:07 | -13.26774 | -76.52463 | 24188 ft | 398 kts | 348° |
| 2026-05-06 19:08 | -13.24091 | -76.53191 | 24658 ft | 401 kts | 337° |
| 2026-05-06 19:08 | -13.21649 | -76.54574 | 25128 ft | 402 kts | 328° |
| 2026-05-06 19:08 | -13.19270 | -76.56102 | 25577 ft | 405 kts | 328° |
| 2026-05-06 19:08 | -13.16876 | -76.57635 | 26047 ft | 406 kts | 329° |
| 2026-05-06 19:09 | -13.14473 | -76.59166 | 26517 ft | 407 kts | 329° |
| 2026-05-06 19:09 | -13.12057 | -76.60705 | 26964 ft | 410 kts | 329° |
| 2026-05-06 19:09 | -13.09631 | -76.62248 | 27400 ft | 411 kts | 329° |
| 2026-05-06 19:09 | -13.07191 | -76.63797 | 27834 ft | 413 kts | 329° |
| 2026-05-06 19:10 | -13.04739 | -76.65357 | 28270 ft | 415 kts | 329° |
| 2026-05-06 19:10 | -13.02279 | -76.66919 | 28718 ft | 417 kts | 330° |
| 2026-05-06 19:10 | -12.99809 | -76.68483 | 29160 ft | 418 kts | 330° |
| 2026-05-06 19:10 | -12.97330 | -76.70060 | 29594 ft | 420 kts | 330° |
| 2026-05-06 19:11 | -12.94837 | -76.71644 | 30019 ft | 422 kts | 330° |
| 2026-05-06 19:11 | -12.92335 | -76.73238 | 30378 ft | 424 kts | 330° |
| 2026-05-06 19:11 | -12.89854 | -76.74813 | 30712 ft | 426 kts | 330° |
| 2026-05-06 19:11 | -12.87323 | -76.76419 | 31051 ft | 428 kts | 330° |
| 2026-05-06 19:12 | -12.84785 | -76.78026 | 31383 ft | 430 kts | 329° |
| 2026-05-06 19:12 | -12.82246 | -76.79646 | 31818 ft | 429 kts | 329° |
| 2026-05-06 19:12 | -12.79715 | -76.81258 | 32291 ft | 427 kts | 329° |
| 2026-05-06 19:12 | -12.77184 | -76.82855 | 32739 ft | 427 kts | 329° |
| 2026-05-06 19:13 | -12.74660 | -76.84448 | 33194 ft | 426 kts | 329° |
| 2026-05-06 19:13 | -12.72141 | -76.86046 | 33679 ft | 425 kts | 328° |
| 2026-05-06 19:13 | -12.69636 | -76.87637 | 34147 ft | 423 kts | 328° |
| 2026-05-06 19:13 | -12.67133 | -76.89220 | 34548 ft | 422 kts | 328° |
| 2026-05-06 19:14 | -12.64637 | -76.90795 | 34932 ft | 421 kts | 328° |
| 2026-05-06 19:14 | -12.62143 | -76.92375 | 35318 ft | 420 kts | 328° |
| 2026-05-06 19:14 | -12.59659 | -76.93943 | 35683 ft | 420 kts | 329° |
| 2026-05-06 19:14 | -12.57042 | -76.95282 | 36045 ft | 420 kts | 338° |
| 2026-05-06 19:15 | -12.54260 | -76.96193 | 36411 ft | 420 kts | 343° |
| 2026-05-06 19:15 | -12.51442 | -76.96986 | 36769 ft | 419 kts | 343° |
| 2026-05-06 19:15 | -12.48646 | -76.97781 | 36949 ft | 416 kts | 343° |
| 2026-05-06 19:16 | -12.43099 | -76.99362 | 36973 ft | 413 kts | 343° |
| 2026-05-06 19:16 | -12.37565 | -77.00953 | 36975 ft | 413 kts | 343° |
| 2026-05-06 19:17 | -12.32063 | -77.02524 | 36975 ft | 413 kts | 343° |
| 2026-05-06 19:17 | -12.26532 | -77.04100 | 36976 ft | 413 kts | 343° |
| 2026-05-06 19:18 | -12.21001 | -77.05686 | 36976 ft | 412 kts | 343° |
| 2026-05-06 19:18 | -12.15481 | -77.07268 | 36978 ft | 412 kts | 343° |
| 2026-05-06 19:19 | -12.09957 | -77.08845 | 36968 ft | 412 kts | 343° |
| 2026-05-06 19:19 | -12.04341 | -77.09999 | 36970 ft | 414 kts | 356° |
| 2026-05-06 19:20 | -11.98607 | -77.09269 | 36970 ft | 419 kts | 11° |
| 2026-05-06 19:20 | -11.92940 | -77.07860 | 36993 ft | 419 kts | 11° |
| 2026-05-06 19:21 | -11.87261 | -77.06463 | 37011 ft | 419 kts | 11° |
| 2026-05-06 19:21 | -11.81587 | -77.05081 | 37011 ft | 419 kts | 11° |
| 2026-05-06 19:22 | -11.75911 | -77.03698 | 37011 ft | 419 kts | 11° |
| 2026-05-06 19:22 | -11.70235 | -77.02308 | 37021 ft | 419 kts | 11° |
| 2026-05-06 19:23 | -11.64568 | -77.00917 | 37019 ft | 419 kts | 11° |
| 2026-05-06 19:23 | -11.58893 | -76.99529 | 37045 ft | 419 kts | 11° |
| 2026-05-06 19:24 | -11.53226 | -76.98150 | 37038 ft | 419 kts | 11° |
| 2026-05-06 19:24 | -11.47559 | -76.96764 | 37037 ft | 418 kts | 11° |
| 2026-05-06 19:25 | -11.41890 | -76.95379 | 37064 ft | 418 kts | 11° |
| 2026-05-06 19:25 | -11.36229 | -76.94001 | 37062 ft | 418 kts | 11° |
| 2026-05-06 19:26 | -11.30563 | -76.92623 | 37138 ft | 418 kts | 11° |
| 2026-05-06 19:26 | -11.24895 | -76.91237 | 37141 ft | 419 kts | 11° |
| 2026-05-06 19:27 | -11.19226 | -76.89862 | 37139 ft | 419 kts | 11° |
| 2026-05-06 19:27 | -11.13602 | -76.88493 | 37137 ft | 418 kts | 11° |
| 2026-05-06 19:28 | -11.07943 | -76.87117 | 37141 ft | 418 kts | 11° |
| 2026-05-06 19:28 | -11.02274 | -76.85739 | 37157 ft | 419 kts | 11° |
| 2026-05-06 19:29 | -10.96606 | -76.84358 | 37162 ft | 419 kts | 11° |
| 2026-05-06 19:29 | -10.91879 | -76.83212 | 37162 ft | 420 kts | 11° |
| 2026-05-06 19:30 | -10.86194 | -76.81827 | 37181 ft | 420 kts | 11° |
| 2026-05-06 19:30 | -10.80494 | -76.80459 | 37181 ft | 420 kts | 8° |
| 2026-05-06 19:30 | -10.77607 | -76.80043 | 37061 ft | 419 kts | 4° |
| 2026-05-06 19:31 | -10.74708 | -76.79737 | 36815 ft | 418 kts | 4° |
| 2026-05-06 19:31 | -10.71821 | -76.79425 | 36576 ft | 417 kts | 4° |
| 2026-05-06 19:31 | -10.66042 | -76.78788 | 36105 ft | 418 kts | 4° |
| 2026-05-06 19:32 | -10.63148 | -76.78470 | 35867 ft | 418 kts | 5° |
| 2026-05-06 19:32 | -10.60251 | -76.78147 | 35630 ft | 419 kts | 4° |
| 2026-05-06 19:32 | -10.57355 | -76.77829 | 35400 ft | 419 kts | 4° |
| 2026-05-06 19:32 | -10.54470 | -76.77509 | 34999 ft | 415 kts | 4° |
| 2026-05-06 19:33 | -10.51606 | -76.77192 | 34518 ft | 411 kts | 4° |
| 2026-05-06 19:33 | -10.48772 | -76.76874 | 34058 ft | 409 kts | 4° |
| 2026-05-06 19:33 | -10.45947 | -76.76564 | 33571 ft | 406 kts | 5° |
| 2026-05-06 19:33 | -10.43152 | -76.76260 | 33135 ft | 402 kts | 5° |
| 2026-05-06 19:34 | -10.40416 | -76.75959 | 32684 ft | 400 kts | 5° |
| 2026-05-06 19:34 | -10.37655 | -76.75654 | 32227 ft | 397 kts | 5° |
| 2026-05-06 19:34 | -10.34917 | -76.75355 | 31776 ft | 395 kts | 5° |
| 2026-05-06 19:34 | -10.32194 | -76.75057 | 31340 ft | 392 kts | 6° |
| 2026-05-06 19:35 | -10.29493 | -76.74759 | 30904 ft | 390 kts | 6° |
| 2026-05-06 19:35 | -10.26800 | -76.74463 | 30468 ft | 388 kts | 6° |
| 2026-05-06 19:35 | -10.24118 | -76.74170 | 29994 ft | 386 kts | 7° |
| 2026-05-06 19:35 | -10.21460 | -76.73878 | 29573 ft | 382 kts | 7° |
| 2026-05-06 19:36 | -10.18827 | -76.73586 | 29146 ft | 380 kts | 7° |
| 2026-05-06 19:36 | -10.16208 | -76.73299 | 28751 ft | 377 kts | 7° |
| 2026-05-06 19:36 | -10.13612 | -76.73015 | 28351 ft | 374 kts | 6° |
| 2026-05-06 19:36 | -10.11024 | -76.72735 | 27938 ft | 372 kts | 7° |
| 2026-05-06 19:37 | -10.08457 | -76.72450 | 27531 ft | 369 kts | 7° |
| 2026-05-06 19:37 | -10.05912 | -76.72168 | 27135 ft | 367 kts | 7° |
| 2026-05-06 19:37 | -10.03382 | -76.71889 | 26723 ft | 365 kts | 7° |
| 2026-05-06 19:37 | -10.00864 | -76.71613 | 26313 ft | 362 kts | 6° |
| 2026-05-06 19:38 | -9.98365 | -76.71343 | 25917 ft | 360 kts | 6° |
| 2026-05-06 19:38 | -9.95878 | -76.71075 | 25502 ft | 359 kts | 7° |
| 2026-05-06 19:38 | -9.93405 | -76.70802 | 25097 ft | 356 kts | 7° |
| 2026-05-06 19:38 | -9.90941 | -76.70528 | 24669 ft | 356 kts | 7° |
| 2026-05-06 19:39 | -9.88480 | -76.70258 | 24253 ft | 355 kts | 7° |
| 2026-05-06 19:39 | -9.86029 | -76.69989 | 23859 ft | 354 kts | 7° |
| 2026-05-06 19:39 | -9.83579 | -76.69716 | 23389 ft | 354 kts | 7° |
| 2026-05-06 19:39 | -9.81141 | -76.69439 | 22985 ft | 351 kts | 7° |
| 2026-05-06 19:40 | -9.78718 | -76.69174 | 22584 ft | 349 kts | 7° |
| 2026-05-06 19:40 | -9.76302 | -76.68914 | 22182 ft | 348 kts | 7° |
| 2026-05-06 19:40 | -9.73903 | -76.68657 | 21786 ft | 347 kts | 6° |
| 2026-05-06 19:40 | -9.71510 | -76.68400 | 21408 ft | 345 kts | 7° |
| 2026-05-06 19:41 | -9.69122 | -76.68136 | 21020 ft | 344 kts | 6° |
| 2026-05-06 19:41 | -9.66776 | -76.67876 | 20634 ft | 344 kts | 6° |
| 2026-05-06 19:41 | -9.64392 | -76.67612 | 20091 ft | 348 kts | 6° |
| 2026-05-06 19:41 | -9.61957 | -76.67343 | 19784 ft | 344 kts | 7° |
| 2026-05-06 19:42 | -9.59586 | -76.67083 | 19443 ft | 342 kts | 6° |
| 2026-05-06 19:42 | -9.57216 | -76.66829 | 19055 ft | 343 kts | 6° |
| 2026-05-06 19:42 | -9.54844 | -76.66573 | 18672 ft | 343 kts | 6° |
| 2026-05-06 19:42 | -9.52473 | -76.66313 | 18261 ft | 343 kts | 6° |
| 2026-05-06 19:43 | -9.50109 | -76.66050 | 17874 ft | 341 kts | 6° |
| 2026-05-06 19:43 | -9.47752 | -76.65791 | 17494 ft | 340 kts | 6° |
| 2026-05-06 19:43 | -9.45434 | -76.65537 | 17131 ft | 339 kts | 6° |
| 2026-05-06 19:43 | -9.43096 | -76.65288 | 16769 ft | 337 kts | 6° |
| 2026-05-06 19:44 | -9.40770 | -76.65031 | 16389 ft | 336 kts | 6° |
| 2026-05-06 19:44 | -9.38452 | -76.64766 | 16009 ft | 334 kts | 9° |
| 2026-05-06 19:44 | -9.36212 | -76.64085 | 15647 ft | 332 kts | 26° |
| 2026-05-06 19:44 | -9.34325 | -76.62822 | 15295 ft | 329 kts | 43° |
| 2026-05-06 19:45 | -9.32877 | -76.61043 | 14949 ft | 327 kts | 60° |
| 2026-05-06 19:45 | -9.31966 | -76.58948 | 14599 ft | 325 kts | 71° |
| 2026-05-06 19:45 | -9.31237 | -76.56786 | 14243 ft | 324 kts | 71° |
| 2026-05-06 19:45 | -9.30507 | -76.54625 | 13850 ft | 324 kts | 71° |
| 2026-05-06 19:46 | -9.29774 | -76.52471 | 13471 ft | 322 kts | 71° |
| 2026-05-06 19:46 | -9.29044 | -76.50339 | 13074 ft | 320 kts | 71° |
| 2026-05-06 19:46 | -9.28313 | -76.48225 | 12711 ft | 317 kts | 71° |
| 2026-05-06 19:46 | -9.27591 | -76.46120 | 12315 ft | 315 kts | 71° |
| 2026-05-06 19:47 | -9.26877 | -76.44031 | 11943 ft | 313 kts | 71° |
| 2026-05-06 19:47 | -9.26164 | -76.41952 | 11575 ft | 311 kts | 71° |
| 2026-05-06 19:47 | -9.25460 | -76.39898 | 11201 ft | 306 kts | 71° |
| 2026-05-06 19:47 | -9.24771 | -76.37883 | 10851 ft | 299 kts | 71° |
| 2026-05-06 19:48 | -9.24109 | -76.35906 | 10438 ft | 295 kts | 71° |
| 2026-05-06 19:48 | -9.23462 | -76.33950 | 10106 ft | 290 kts | 71° |
| 2026-05-06 19:48 | -9.22833 | -76.32032 | 9831 ft | 284 kts | 71° |
| 2026-05-06 19:48 | -9.22216 | -76.30162 | 9535 ft | 277 kts | 71° |
| 2026-05-06 19:49 | -9.21606 | -76.28332 | 9138 ft | 272 kts | 71° |
| 2026-05-06 19:49 | -9.21001 | -76.26529 | 8664 ft | 268 kts | 71° |
| 2026-05-06 19:49 | -9.20298 | -76.24809 | 8209 ft | 263 kts | 64° |
| 2026-05-06 19:49 | -9.19321 | -76.23254 | 7865 ft | 259 kts | 54° |
| 2026-05-06 19:50 | -9.18246 | -76.21812 | 7529 ft | 257 kts | 53° |
| 2026-05-06 19:50 | -9.17109 | -76.20433 | 7173 ft | 255 kts | 46° |
| 2026-05-06 19:50 | -9.15882 | -76.19162 | 6927 ft | 249 kts | 46° |
| 2026-05-06 19:50 | -9.14678 | -76.17916 | 6691 ft | 246 kts | 46° |
| 2026-05-06 19:51 | -9.13470 | -76.16704 | 6477 ft | 244 kts | 43° |
| 2026-05-06 19:51 | -9.12102 | -76.15702 | 6229 ft | 243 kts | 32° |
| 2026-05-06 19:51 | -9.10669 | -76.14809 | 5954 ft | 239 kts | 32° |
| 2026-05-06 19:51 | -9.09260 | -76.13939 | 5699 ft | 235 kts | 28° |
| 2026-05-06 19:52 | -9.07787 | -76.13271 | 5456 ft | 230 kts | 23° |
| 2026-05-06 19:52 | -9.06321 | -76.12658 | 5211 ft | 226 kts | 23° |
| 2026-05-06 19:52 | -9.04873 | -76.12057 | 4966 ft | 223 kts | 22° |
| 2026-05-06 19:52 | -9.03419 | -76.11544 | 4722 ft | 220 kts | 16° |
| 2026-05-06 19:53 | -9.01923 | -76.11266 | 4469 ft | 218 kts | 10° |
| 2026-05-06 19:53 | -9.00448 | -76.10987 | 4211 ft | 213 kts | 20° |
| 2026-05-06 19:53 | -8.99244 | -76.10173 | 4041 ft | 207 kts | 51° |
| 2026-05-06 19:53 | -8.98590 | -76.08895 | 4032 ft | 210 kts | 77° |
| 2026-05-06 19:54 | -8.98611 | -76.07418 | 4016 ft | 214 kts | 107° |
| 2026-05-06 19:54 | -8.99366 | -76.06121 | 4009 ft | 217 kts | 135° |
| 2026-05-06 19:54 | -9.00610 | -76.05259 | 4005 ft | 216 kts | 149° |
| 2026-05-06 19:54 | -9.01882 | -76.04521 | 4000 ft | 210 kts | 149° |
| 2026-05-06 19:55 | -9.03158 | -76.03780 | 4004 ft | 212 kts | 149° |
| 2026-05-06 19:55 | -9.04438 | -76.03032 | 4006 ft | 213 kts | 149° |
| 2026-05-06 19:55 | -9.05706 | -76.02297 | 4007 ft | 213 kts | 149° |
| 2026-05-06 19:55 | -9.06989 | -76.01550 | 4003 ft | 213 kts | 149° |
| 2026-05-06 19:56 | -9.08272 | -76.00800 | 4012 ft | 214 kts | 149° |
| 2026-05-06 19:56 | -9.09581 | -76.00033 | 3934 ft | 220 kts | 149° |
| 2026-05-06 19:56 | -9.10945 | -75.99327 | 3721 ft | 213 kts | 160° |
| 2026-05-06 19:56 | -9.12321 | -75.99062 | 3557 ft | 196 kts | 177° |
| 2026-05-06 19:57 | -9.13641 | -75.99124 | 3370 ft | 179 kts | 184° |
| 2026-05-06 19:57 | -9.14786 | -75.99212 | 3192 ft | 156 kts | 184° |
| 2026-05-06 19:57 | -9.15825 | -75.99281 | 3057 ft | 145 kts | 183° |
| 2026-05-06 19:57 | -9.16820 | -75.99338 | 2949 ft | 142 kts | 182° |
| 2026-05-06 19:58 | -9.17800 | -75.99384 | 2906 ft | 140 kts | 181° |
| 2026-05-06 19:58 | -9.18778 | -75.99422 | 2913 ft | 140 kts | 181° |
| 2026-05-06 19:58 | -9.19755 | -75.99442 | 2902 ft | 140 kts | 181° |
| 2026-05-06 19:58 | -9.20728 | -75.99500 | 2907 ft | 140 kts | 186° |
| 2026-05-06 19:59 | -9.21699 | -75.99597 | 2961 ft | 140 kts | 185° |
| 2026-05-06 19:59 | -9.22670 | -75.99686 | 2942 ft | 141 kts | 186° |
| 2026-05-06 19:59 | -9.23640 | -75.99847 | 2889 ft | 143 kts | 192° |
| 2026-05-06 19:59 | -9.24612 | -76.00028 | 2820 ft | 143 kts | 191° |
| 2026-05-06 20:00 | -9.25594 | -76.00166 | 2710 ft | 141 kts | 188° |
| 2026-05-06 20:00 | -9.26572 | -76.00266 | 2500 ft | 139 kts | 187° |
| 2026-05-06 20:00 | -9.27547 | -76.00364 | 2361 ft | 142 kts | 187° |
| 2026-05-06 20:00 | -9.28525 | -76.00463 | 2127 ft | 137 kts | 186° |
| 2026-05-06 20:01 | -9.29286 | -76.00537 | 2120 ft | 70 kts | 187° |
| 2026-05-06 20:01 | -9.29570 | -76.00541 | 2121 ft | 29 kts | 153° |
| 2026-05-06 20:01 | -9.29622 | -76.00480 | 2128 ft | 5 kts | 155° |
| 2026-05-06 20:01 | -9.29635 | -76.00481 | 2128 ft | 0 kts | 187° |
| 2026-05-06 20:02 | -9.29636 | -76.00481 | 2128 ft | 0 kts | 187° |